sensor_id;sensor_type;location;lat;lon;timestamp;pressure;altitude;pressure_sealevel;temperature;humidity
20394;BME280;10356;50.544;9.642;2023-02-07T00:01:55;100517.72;;;0.82;87.78
20394;BME280;10356;50.544;9.642;2023-02-07T00:04:22;100510.00;;;0.78;88.62
20394;BME280;10356;50.544;9.642;2023-02-07T00:06:48;100504.03;;;0.74;88.36
20394;BME280;10356;50.544;9.642;2023-02-07T00:09:16;100500.63;;;0.78;88.36
20394;BME280;10356;50.544;9.642;2023-02-07T00:11:42;100510.88;;;0.78;88.25
20394;BME280;10356;50.544;9.642;2023-02-07T00:14:10;100505.75;;;0.72;88.89
20394;BME280;10356;50.544;9.642;2023-02-07T00:16:37;100495.47;;;0.78;88.77
20394;BME280;10356;50.544;9.642;2023-02-07T00:19:04;100504.03;;;0.70;88.54
20394;BME280;10356;50.544;9.642;2023-02-07T00:21:30;100504.91;;;0.72;88.81
20394;BME280;10356;50.544;9.642;2023-02-07T00:23:57;100504.03;;;0.65;89.23
20394;BME280;10356;50.544;9.642;2023-02-07T00:26:25;100500.63;;;0.72;88.65
20394;BME280;10356;50.544;9.642;2023-02-07T00:28:54;100499.78;;;0.72;88.28
20394;BME280;10356;50.544;9.642;2023-02-07T00:31:23;100492.09;;;0.64;89.35
20394;BME280;10356;50.544;9.642;2023-02-07T00:33:52;100493.78;;;0.68;89.42
20394;BME280;10356;50.544;9.642;2023-02-07T00:36:21;100485.22;;;0.69;88.75
20394;BME280;10356;50.544;9.642;2023-02-07T00:38:49;100478.41;;;0.68;88.78
20394;BME280;10356;50.544;9.642;2023-02-07T00:41:16;100480.13;;;0.66;88.90
20394;BME280;10356;50.544;9.642;2023-02-07T00:43:46;100480.09;;;0.75;89.17
20394;BME280;10356;50.544;9.642;2023-02-07T00:46:13;100478.38;;;0.71;87.60
20394;BME280;10356;50.544;9.642;2023-02-07T00:48:40;100479.25;;;0.72;87.87
20394;BME280;10356;50.544;9.642;2023-02-07T00:51:07;100472.41;;;0.63;87.34
20394;BME280;10356;50.544;9.642;2023-02-07T00:53:34;100470.72;;;0.58;86.61
20394;BME280;10356;50.544;9.642;2023-02-07T00:56:01;100476.69;;;0.61;86.10
20394;BME280;10356;50.544;9.642;2023-02-07T00:58:27;100485.28;;;0.48;87.01
20394;BME280;10356;50.544;9.642;2023-02-07T01:00:55;100492.97;;;0.48;86.00
20394;BME280;10356;50.544;9.642;2023-02-07T01:03:21;100493.81;;;0.35;86.13
20394;BME280;10356;50.544;9.642;2023-02-07T01:05:48;100484.44;;;0.31;86.74
20394;BME280;10356;50.544;9.642;2023-02-07T01:08:15;100483.59;;;0.26;87.01
20394;BME280;10356;50.544;9.642;2023-02-07T01:10:43;100481.88;;;0.19;86.48
20394;BME280;10356;50.544;9.642;2023-02-07T01:13:10;100483.59;;;0.14;86.21
20394;BME280;10356;50.544;9.642;2023-02-07T01:15:39;100481.88;;;0.16;84.94
20394;BME280;10356;50.544;9.642;2023-02-07T01:18:08;100481.03;;;0.08;84.00
20394;BME280;10356;50.544;9.642;2023-02-07T01:20:35;100480.16;;;-0.03;84.53
20394;BME280;10356;50.544;9.642;2023-02-07T01:23:02;100483.56;;;-0.01;84.14
20394;BME280;10356;50.544;9.642;2023-02-07T01:25:28;100482.72;;;-0.09;84.13
20394;BME280;10356;50.544;9.642;2023-02-07T01:27:55;100485.25;;;-0.17;84.36
20394;BME280;10356;50.544;9.642;2023-02-07T01:30:21;100498.91;;;-0.19;83.93
20394;BME280;10356;50.544;9.642;2023-02-07T01:32:48;100496.34;;;-0.22;83.84
20394;BME280;10356;50.544;9.642;2023-02-07T01:35:16;100495.50;;;-0.27;83.79
20394;BME280;10356;50.544;9.642;2023-02-07T01:37:43;100493.75;;;-0.28;84.04
20394;BME280;10356;50.544;9.642;2023-02-07T01:40:11;100486.94;;;-0.35;84.52
20394;BME280;10356;50.544;9.642;2023-02-07T01:42:38;100498.84;;;-0.49;85.21
20394;BME280;10356;50.544;9.642;2023-02-07T01:45:15;100487.75;;;-0.48;85.18
20394;BME280;10356;50.544;9.642;2023-02-07T01:47:46;100486.88;;;-0.52;85.70
20394;BME280;10356;50.544;9.642;2023-02-07T01:50:12;100485.16;;;-0.57;85.25
20394;BME280;10356;50.544;9.642;2023-02-07T01:52:40;100486.84;;;-0.65;85.58
20394;BME280;10356;50.544;9.642;2023-02-07T01:55:10;100482.56;;;-0.74;85.91
20394;BME280;10356;50.544;9.642;2023-02-07T01:57:38;100481.72;;;-0.73;85.63
20394;BME280;10356;50.544;9.642;2023-02-07T02:00:07;100485.06;;;-0.85;85.84
20394;BME280;10356;50.544;9.642;2023-02-07T02:02:35;100484.22;;;-0.91;85.88
20394;BME280;10356;50.544;9.642;2023-02-07T02:05:03;100480.78;;;-0.89;85.41
20394;BME280;10356;50.544;9.642;2023-02-07T02:07:30;100482.47;;;-0.94;85.56
20394;BME280;10356;50.544;9.642;2023-02-07T02:09:59;100483.31;;;-0.98;85.91
20394;BME280;10356;50.544;9.642;2023-02-07T02:15:33;100481.56;;;-1.08;86.73
20394;BME280;10356;50.544;9.642;2023-02-07T02:18:19;100478.16;;;-1.02;86.17
20394;BME280;10356;50.544;9.642;2023-02-07T02:26:53;100486.59;;;-1.26;87.74
20394;BME280;10356;50.544;9.642;2023-02-07T02:29:43;100479.78;;;-1.24;88.10
20394;BME280;10356;50.544;9.642;2023-02-07T02:35:19;100478.97;;;-1.11;87.28
20394;BME280;10356;50.544;9.642;2023-02-07T02:37:52;100472.94;;;-1.28;87.66
20394;BME280;10356;50.544;9.642;2023-02-07T02:40:23;100472.88;;;-1.40;88.61
20394;BME280;10356;50.544;9.642;2023-02-07T02:42:57;100472.78;;;-1.49;88.88
20394;BME280;10356;50.544;9.642;2023-02-07T02:45:28;100471.88;;;-1.58;88.85
20394;BME280;10356;50.544;9.642;2023-02-07T02:47:58;100462.44;;;-1.70;89.30
20394;BME280;10356;50.544;9.642;2023-02-07T02:50:29;100458.97;;;-1.78;90.00
20394;BME280;10356;50.544;9.642;2023-02-07T02:52:56;100458.94;;;-1.84;90.31
20394;BME280;10356;50.544;9.642;2023-02-07T02:58:24;100463.94;;;-1.96;90.33
20394;BME280;10356;50.544;9.642;2023-02-07T03:01:05;100465.59;;;-2.01;90.97
20394;BME280;10356;50.544;9.642;2023-02-07T03:03:48;100467.25;;;-2.06;91.23
20394;BME280;10356;50.544;9.642;2023-02-07T03:06:32;100468.94;;;-2.08;91.40
20394;BME280;10356;50.544;9.642;2023-02-07T03:09:09;100453.59;;;-2.10;91.40
20394;BME280;10356;50.544;9.642;2023-02-07T03:11:40;100444.19;;;-2.17;91.88
20394;BME280;10356;50.544;9.642;2023-02-07T03:14:13;100439.03;;;-2.24;91.43
20394;BME280;10356;50.544;9.642;2023-02-07T03:16:50;100441.47;;;-2.33;92.50
20394;BME280;10356;50.544;9.642;2023-02-07T03:19:22;100439.75;;;-2.37;92.90
20394;BME280;10356;50.544;9.642;2023-02-07T03:21:54;100438.00;;;-2.41;93.25
20394;BME280;10356;50.544;9.642;2023-02-07T03:24:25;100446.50;;;-2.42;93.75
20394;BME280;10356;50.544;9.642;2023-02-07T03:26:56;100439.69;;;-2.45;93.87
20394;BME280;10356;50.544;9.642;2023-02-07T03:29:25;100436.22;;;-2.50;94.06
20394;BME280;10356;50.544;9.642;2023-02-07T03:31:56;100437.88;;;-2.57;94.17
20394;BME280;10356;50.544;9.642;2023-02-07T03:34:28;100431.84;;;-2.63;95.11
20394;BME280;10356;50.544;9.642;2023-02-07T03:37:03;100436.03;;;-2.67;95.61
20394;BME280;10356;50.544;9.642;2023-02-07T03:39:32;100444.53;;;-2.68;95.98
20394;BME280;10356;50.544;9.642;2023-02-07T03:42:01;100432.53;;;-2.75;96.05
20394;BME280;10356;50.544;9.642;2023-02-07T03:44:30;100437.56;;;-2.81;96.23
20394;BME280;10356;50.544;9.642;2023-02-07T03:46:58;100427.31;;;-2.88;96.11
20394;BME280;10356;50.544;9.642;2023-02-07T03:49:25;100430.66;;;-2.94;96.76
20394;BME280;10356;50.544;9.642;2023-02-07T03:51:51;100428.88;;;-2.99;96.75
20394;BME280;10356;50.544;9.642;2023-02-07T03:54:19;100434.00;;;-2.96;97.27
20394;BME280;10356;50.544;9.642;2023-02-07T03:56:46;100432.28;;;-2.99;97.38
20394;BME280;10356;50.544;9.642;2023-02-07T03:59:12;100431.38;;;-3.05;96.97
20394;BME280;10356;50.544;9.642;2023-02-07T04:01:39;100447.41;;;-3.12;97.22
20394;BME280;10356;50.544;9.642;2023-02-07T04:04:07;100451.63;;;-3.16;97.45
20394;BME280;10356;50.544;9.642;2023-02-07T04:06:33;100450.69;;;-3.21;98.07
20394;BME280;10356;50.544;9.642;2023-02-07T04:09:00;100460.88;;;-3.24;98.49
20394;BME280;10356;50.544;9.642;2023-02-07T04:11:28;100459.97;;;-3.27;98.44
20394;BME280;10356;50.544;9.642;2023-02-07T04:13:54;100459.13;;;-3.26;98.84
20394;BME280;10356;50.544;9.642;2023-02-07T04:16:21;100459.13;;;-3.28;99.43
20394;BME280;10356;50.544;9.642;2023-02-07T04:18:47;100456.50;;;-3.31;100.00
20394;BME280;10356;50.544;9.642;2023-02-07T04:21:14;100453.06;;;-3.36;100.00
20394;BME280;10356;50.544;9.642;2023-02-07T04:23:40;100453.88;;;-3.37;100.00
20394;BME280;10356;50.544;9.642;2023-02-07T04:26:07;100455.50;;;-3.44;100.00
20394;BME280;10356;50.544;9.642;2023-02-07T04:28:35;100460.63;;;-3.42;100.00
20394;BME280;10356;50.544;9.642;2023-02-07T04:31:01;100457.19;;;-3.44;100.00
20394;BME280;10356;50.544;9.642;2023-02-07T04:33:28;100463.97;;;-3.45;100.00
20394;BME280;10356;50.544;9.642;2023-02-07T04:35:55;100468.97;;;-3.52;100.00
20394;BME280;10356;50.544;9.642;2023-02-07T04:38:21;100468.97;;;-3.52;100.00
20394;BME280;10356;50.544;9.642;2023-02-07T04:40:48;100479.06;;;-3.58;100.00
20394;BME280;10356;50.544;9.642;2023-02-07T04:43:14;100475.66;;;-3.60;100.00
20394;BME280;10356;50.544;9.642;2023-02-07T04:45:44;100485.75;;;-3.65;100.00
20394;BME280;10356;50.544;9.642;2023-02-07T04:48:11;100484.03;;;-3.67;100.00
20394;BME280;10356;50.544;9.642;2023-02-07T04:50:37;100484.03;;;-3.67;100.00
20394;BME280;10356;50.544;9.642;2023-02-07T04:53:04;100490.75;;;-3.72;100.00
20394;BME280;10356;50.544;9.642;2023-02-07T04:55:30;100486.47;;;-3.73;100.00
20394;BME280;10356;50.544;9.642;2023-02-07T04:57:58;100483.03;;;-3.75;100.00
20394;BME280;10356;50.544;9.642;2023-02-07T05:00:25;100490.72;;;-3.74;100.00
20394;BME280;10356;50.544;9.642;2023-02-07T05:02:52;100478.81;;;-3.76;100.00
20394;BME280;10356;50.544;9.642;2023-02-07T05:05:19;100482.22;;;-3.74;100.00
20394;BME280;10356;50.544;9.642;2023-02-07T05:07:46;100481.47;;;-3.67;100.00
20394;BME280;10356;50.544;9.642;2023-02-07T05:10:12;100482.31;;;-3.68;100.00
20394;BME280;10356;50.544;9.642;2023-02-07T05:12:39;100469.53;;;-3.71;100.00
20394;BME280;10356;50.544;9.642;2023-02-07T05:15:06;100465.75;;;-3.39;100.00
20394;BME280;10356;50.544;9.642;2023-02-07T05:17:32;100467.38;;;-3.44;100.00
20394;BME280;10356;50.544;9.642;2023-02-07T05:20:00;100473.19;;;-3.54;100.00
20394;BME280;10356;50.544;9.642;2023-02-07T05:22:27;100480.75;;;-3.60;100.00
20394;BME280;10356;50.544;9.642;2023-02-07T05:24:53;100484.88;;;-3.67;100.00
20394;BME280;10356;50.544;9.642;2023-02-07T05:27:20;100477.13;;;-3.74;100.00
20394;BME280;10356;50.544;9.642;2023-02-07T05:29:47;100490.69;;;-3.75;100.00
20394;BME280;10356;50.544;9.642;2023-02-07T05:32:14;100482.13;;;-3.80;100.00
20394;BME280;10356;50.544;9.642;2023-02-07T05:34:58;100478.53;;;-3.93;100.00
20394;BME280;10356;50.544;9.642;2023-02-07T05:37:26;100476.78;;;-3.95;100.00
20394;BME280;10356;50.544;9.642;2023-02-07T05:39:53;100473.34;;;-3.99;100.00
20394;BME280;10356;50.544;9.642;2023-02-07T05:42:19;100481.75;;;-4.04;100.00
20394;BME280;10356;50.544;9.642;2023-02-07T05:44:46;100478.22;;;-4.12;100.00
20394;BME280;10356;50.544;9.642;2023-02-07T05:47:13;100490.94;;;-4.12;100.00
20394;BME280;10356;50.544;9.642;2023-02-07T05:49:39;100488.28;;;-4.18;100.00
20394;BME280;10356;50.544;9.642;2023-02-07T05:52:07;100488.31;;;-4.15;100.00
20394;BME280;10356;50.544;9.642;2023-02-07T05:54:35;100491.63;;;-4.22;100.00
20394;BME280;10356;50.544;9.642;2023-02-07T05:57:02;100492.41;;;-4.27;100.00
20394;BME280;10356;50.544;9.642;2023-02-07T05:59:28;100496.50;;;-4.35;100.00
20394;BME280;10356;50.544;9.642;2023-02-07T06:01:55;100501.47;;;-4.41;100.00
20394;BME280;10356;50.544;9.642;2023-02-07T06:04:21;100494.72;;;-4.39;100.00
20394;BME280;10356;50.544;9.642;2023-02-07T06:06:48;100506.59;;;-4.38;100.00
20394;BME280;10356;50.544;9.642;2023-02-07T06:09:14;100511.69;;;-4.38;100.00
20394;BME280;10356;50.544;9.642;2023-02-07T06:11:42;100520.16;;;-4.39;100.00
20394;BME280;10356;50.544;9.642;2023-02-07T06:14:09;100529.41;;;-4.42;100.00
20394;BME280;10356;50.544;9.642;2023-02-07T06:16:35;100545.47;;;-4.45;100.00
20394;BME280;10356;50.544;9.642;2023-02-07T06:19:02;100537.69;;;-4.52;100.00
20394;BME280;10356;50.544;9.642;2023-02-07T06:21:28;100543.59;;;-4.55;100.00
20394;BME280;10356;50.544;9.642;2023-02-07T06:23:55;100547.78;;;-4.57;100.00
20394;BME280;10356;50.544;9.642;2023-02-07T06:26:21;100562.16;;;-4.59;100.00
20394;BME280;10356;50.544;9.642;2023-02-07T06:28:49;100563.84;;;-4.59;100.00
20394;BME280;10356;50.544;9.642;2023-02-07T06:31:16;100564.66;;;-4.60;100.00
20394;BME280;10356;50.544;9.642;2023-02-07T06:33:42;100570.59;;;-4.60;100.00
20394;BME280;10356;50.544;9.642;2023-02-07T06:36:09;100576.56;;;-4.58;100.00
20394;BME280;10356;50.544;9.642;2023-02-07T06:38:35;100585.06;;;-4.59;100.00
20394;BME280;10356;50.544;9.642;2023-02-07T06:41:02;100566.38;;;-4.61;100.00
20394;BME280;10356;50.544;9.642;2023-02-07T06:43:28;100568.94;;;-4.58;100.00
20394;BME280;10356;50.544;9.642;2023-02-07T06:45:56;100563.94;;;-4.55;100.00
20394;BME280;10356;50.544;9.642;2023-02-07T06:48:23;100567.28;;;-4.56;100.00
20394;BME280;10356;50.544;9.642;2023-02-07T06:50:49;100571.56;;;-4.55;100.00
20394;BME280;10356;50.544;9.642;2023-02-07T06:53:16;100567.28;;;-4.56;100.00
20394;BME280;10356;50.544;9.642;2023-02-07T06:55:43;100574.91;;;-4.57;100.00
20394;BME280;10356;50.544;9.642;2023-02-07T06:58:09;100568.06;;;-4.60;100.00
20394;BME280;10356;50.544;9.642;2023-02-07T07:00:36;100576.53;;;-4.61;100.00
20394;BME280;10356;50.544;9.642;2023-02-07T07:03:04;100568.91;;;-4.61;100.00
20394;BME280;10356;50.544;9.642;2023-02-07T07:05:30;100573.91;;;-4.64;100.00
20394;BME280;10356;50.544;9.642;2023-02-07T07:07:57;100587.50;;;-4.62;100.00
20394;BME280;10356;50.544;9.642;2023-02-07T07:10:24;100585.84;;;-4.61;100.00
20394;BME280;10356;50.544;9.642;2023-02-07T07:12:50;100590.91;;;-4.63;100.00
20394;BME280;10356;50.544;9.642;2023-02-07T07:15:17;100588.38;;;-4.63;100.00
20394;BME280;10356;50.544;9.642;2023-02-07T07:17:43;100578.19;;;-4.63;100.00
20394;BME280;10356;50.544;9.642;2023-02-07T07:20:11;100584.16;;;-4.61;100.00
20394;BME280;10356;50.544;9.642;2023-02-07T07:22:38;100583.31;;;-4.61;100.00
20394;BME280;10356;50.544;9.642;2023-02-07T07:25:05;100581.56;;;-4.62;100.00
20394;BME280;10356;50.544;9.642;2023-02-07T07:27:32;100579.88;;;-4.63;100.00
20394;BME280;10356;50.544;9.642;2023-02-07T07:29:58;100583.31;;;-4.60;100.00
20394;BME280;10356;50.544;9.642;2023-02-07T07:32:25;100590.19;;;-4.56;100.00
20394;BME280;10356;50.544;9.642;2023-02-07T07:34:51;100591.16;;;-4.51;100.00
20394;BME280;10356;50.544;9.642;2023-02-07T07:37:20;100591.28;;;-4.43;100.00
20394;BME280;10356;50.544;9.642;2023-02-07T07:39:46;100596.53;;;-4.34;100.00
20394;BME280;10356;50.544;9.642;2023-02-07T07:42:13;100590.91;;;-4.19;100.00
20394;BME280;10356;50.544;9.642;2023-02-07T07:44:39;100594.56;;;-4.04;100.00
20394;BME280;10356;50.544;9.642;2023-02-07T07:47:05;100594.03;;;-3.88;100.00
20394;BME280;10356;50.544;9.642;2023-02-07T07:49:32;100593.59;;;-3.66;100.00
20394;BME280;10356;50.544;9.642;2023-02-07T07:51:58;100605.75;;;-3.50;100.00
20394;BME280;10356;50.544;9.642;2023-02-07T07:54:26;100610.28;;;-3.30;100.00
20394;BME280;10356;50.544;9.642;2023-02-07T07:56:54;100613.00;;;-3.20;100.00
20394;BME280;10356;50.544;9.642;2023-02-07T07:59:20;100600.38;;;-3.11;100.00
20394;BME280;10356;50.544;9.642;2023-02-07T08:01:47;100607.34;;;-3.01;100.00
20394;BME280;10356;50.544;9.642;2023-02-07T08:04:13;100611.72;;;-2.91;100.00
20394;BME280;10356;50.544;9.642;2023-02-07T08:06:40;100605.91;;;-2.81;100.00
20394;BME280;10356;50.544;9.642;2023-02-07T08:09:06;100606.06;;;-2.72;100.00
20394;BME280;10356;50.544;9.642;2023-02-07T08:11:34;100599.38;;;-2.61;100.00
20394;BME280;10356;50.544;9.642;2023-02-07T08:14:01;100606.28;;;-2.57;100.00
20394;BME280;10356;50.544;9.642;2023-02-07T08:16:27;100603.84;;;-2.46;100.00
20394;BME280;10356;50.544;9.642;2023-02-07T08:18:54;100603.06;;;-2.40;100.00
20394;BME280;10356;50.544;9.642;2023-02-07T08:21:20;100598.88;;;-2.34;100.00
20394;BME280;10356;50.544;9.642;2023-02-07T08:23:47;100593.91;;;-2.25;100.00
20394;BME280;10356;50.544;9.642;2023-02-07T08:26:13;100603.31;;;-2.18;98.69
20394;BME280;10356;50.544;9.642;2023-02-07T08:28:41;100601.69;;;-2.11;98.85
20394;BME280;10356;50.544;9.642;2023-02-07T08:31:08;100610.28;;;-2.03;98.08
20394;BME280;10356;50.544;9.642;2023-02-07T08:33:34;100611.19;;;-2.00;95.48
20394;BME280;10356;50.544;9.642;2023-02-07T08:36:01;100607.03;;;-1.90;94.57
20394;BME280;10356;50.544;9.642;2023-02-07T08:38:32;100599.34;;;-1.92;93.27
20394;BME280;10356;50.544;9.642;2023-02-07T08:40:58;100605.38;;;-1.85;93.04
20394;BME280;10356;50.544;9.642;2023-02-07T08:43:25;100588.41;;;-1.80;92.68
20394;BME280;10356;50.544;9.642;2023-02-07T08:45:53;100586.78;;;-1.71;93.33
20394;BME280;10356;50.544;9.642;2023-02-07T08:48:20;100582.59;;;-1.61;92.97
20394;BME280;10356;50.544;9.642;2023-02-07T08:50:46;100580.09;;;-1.58;91.95
20394;BME280;10356;50.544;9.642;2023-02-07T08:53:13;100573.28;;;-1.56;88.53
20394;BME280;10356;50.544;9.642;2023-02-07T08:55:39;100569.94;;;-1.49;86.80
20394;BME280;10356;50.544;9.642;2023-02-07T08:58:06;100557.19;;;-1.43;85.18
20394;BME280;10356;50.544;9.642;2023-02-07T09:00:33;100563.13;;;-1.47;82.48
20394;BME280;10356;50.544;9.642;2023-02-07T09:03:02;100563.22;;;-1.38;82.00
20394;BME280;10356;50.544;9.642;2023-02-07T09:05:29;100558.09;;;-1.35;81.51
20394;BME280;10356;50.544;9.642;2023-02-07T09:07:57;100558.19;;;-1.27;81.43
20394;BME280;10356;50.544;9.642;2023-02-07T09:10:23;100556.50;;;-1.24;81.39
20394;BME280;10356;50.544;9.642;2023-02-07T09:12:50;100554.84;;;-1.13;80.94
20394;BME280;10356;50.544;9.642;2023-02-07T09:15:17;100558.31;;;-1.09;80.44
20394;BME280;10356;50.544;9.642;2023-02-07T09:17:43;100563.47;;;-0.99;81.17
20394;BME280;10356;50.544;9.642;2023-02-07T09:20:11;100560.97;;;-0.91;80.36
20394;BME280;10356;50.544;9.642;2023-02-07T09:22:38;100558.38;;;-0.93;80.25
20394;BME280;10356;50.544;9.642;2023-02-07T09:25:18;100567.84;;;-0.81;79.96
20394;BME280;10356;50.544;9.642;2023-02-07T09:27:45;100569.56;;;-0.75;78.68
20394;BME280;10356;50.544;9.642;2023-02-07T09:30:12;100566.13;;;-0.83;77.24
20394;BME280;10356;50.544;9.642;2023-02-07T09:32:38;100567.88;;;-0.75;77.60
20394;BME280;10356;50.544;9.642;2023-02-07T09:35:05;100566.22;;;-0.67;77.42
20394;BME280;10356;50.544;9.642;2023-02-07T09:37:34;100572.16;;;-0.66;77.47
20394;BME280;10356;50.544;9.642;2023-02-07T09:40:01;100563.72;;;-0.46;77.36
20394;BME280;10356;50.544;9.642;2023-02-07T09:42:35;100564.59;;;-0.36;76.58
20394;BME280;10356;50.544;9.642;2023-02-07T09:45:08;100572.31;;;-0.30;76.55
20394;BME280;10356;50.544;9.642;2023-02-07T09:47:37;100575.72;;;-0.28;75.46
20394;BME280;10356;50.544;9.642;2023-02-07T09:50:11;100580.03;;;-0.20;75.38
20394;BME280;10356;50.544;9.642;2023-02-07T09:52:43;100568.97;;;-0.11;73.96
20394;BME280;10356;50.544;9.642;2023-02-07T09:55:17;100578.38;;;0.00;73.12
20394;BME280;10356;50.544;9.642;2023-02-07T09:57:49;100581.81;;;0.01;71.15
20394;BME280;10356;50.544;9.642;2023-02-07T10:00:19;100577.56;;;0.15;71.26
20394;BME280;10356;50.544;9.642;2023-02-07T10:02:51;100575.84;;;0.23;71.57
20394;BME280;10356;50.544;9.642;2023-02-07T10:05:26;100576.72;;;0.30;70.21
20394;BME280;10356;50.544;9.642;2023-02-07T10:07:56;100570.75;;;0.32;68.97
20394;BME280;10356;50.544;9.642;2023-02-07T10:10:30;100572.47;;;0.44;68.67
20394;BME280;10356;50.544;9.642;2023-02-07T10:13:08;100575.03;;;0.45;67.63
20394;BME280;10356;50.544;9.642;2023-02-07T10:15:44;100578.44;;;0.38;67.91
20394;BME280;10356;50.544;9.642;2023-02-07T10:18:36;100585.28;;;0.50;65.66
20394;BME280;10356;50.544;9.642;2023-02-07T10:21:09;100581.00;;;0.71;65.60
20394;BME280;10356;50.544;9.642;2023-02-07T10:23:52;100575.88;;;0.87;64.82
20394;BME280;10356;50.544;9.642;2023-02-07T10:26:30;100563.84;;;0.98;64.70
20394;BME280;10356;50.544;9.642;2023-02-07T10:29:27;100568.09;;;1.17;63.28
20394;BME280;10356;50.544;9.642;2023-02-07T10:32:00;100571.50;;;1.23;61.27
20394;BME280;10356;50.544;9.642;2023-02-07T10:34:31;100568.06;;;1.30;61.14
20394;BME280;10356;50.544;9.642;2023-02-07T10:37:04;100565.44;;;1.47;60.64
20394;BME280;10356;50.544;9.642;2023-02-07T10:39:44;100564.63;;;1.30;59.92
20394;BME280;10356;50.544;9.642;2023-02-07T10:42:15;100568.84;;;1.50;59.54
20394;BME280;10356;50.544;9.642;2023-02-07T10:44:44;100563.66;;;1.61;59.76
20394;BME280;10356;50.544;9.642;2023-02-07T10:47:13;100569.75;;;1.34;58.28
20394;BME280;10356;50.544;9.642;2023-02-07T10:49:43;100565.38;;;1.62;58.74
20394;BME280;10356;50.544;9.642;2023-02-07T10:52:17;100567.88;;;1.77;59.23
20394;BME280;10356;50.544;9.642;2023-02-07T10:54:52;100567.09;;;1.63;56.45
20394;BME280;10356;50.544;9.642;2023-02-07T10:57:20;100567.06;;;1.69;58.17
20394;BME280;10356;50.544;9.642;2023-02-07T10:59:47;100567.06;;;1.64;56.28
20394;BME280;10356;50.544;9.642;2023-02-07T11:02:44;100567.00;;;1.81;57.06
20394;BME280;10356;50.544;9.642;2023-02-07T11:05:36;100566.94;;;1.93;56.40
20394;BME280;10356;50.544;9.642;2023-02-07T11:08:05;100559.16;;;2.02;56.07
20394;BME280;10356;50.544;9.642;2023-02-07T11:10:39;100561.69;;;2.08;54.84
20394;BME280;10356;50.544;9.642;2023-02-07T11:13:11;100551.41;;;2.10;53.75
20394;BME280;10356;50.544;9.642;2023-02-07T11:15:45;100557.47;;;2.01;55.21
20394;BME280;10356;50.544;9.642;2023-02-07T11:18:25;100554.81;;;2.10;56.17
20394;BME280;10356;50.544;9.642;2023-02-07T11:20:53;100553.84;;;2.28;56.63
20394;BME280;10356;50.544;9.642;2023-02-07T11:23:21;100556.38;;;2.31;53.85
20394;BME280;10356;50.544;9.642;2023-02-07T11:25:53;100548.44;;;2.60;54.42
20394;BME280;10356;50.544;9.642;2023-02-07T11:28:23;100543.91;;;2.89;53.64
20394;BME280;10356;50.544;9.642;2023-02-07T11:30:52;100542.97;;;2.94;52.00
20394;BME280;10356;50.544;9.642;2023-02-07T11:33:25;100538.69;;;2.95;50.42
20394;BME280;10356;50.544;9.642;2023-02-07T11:36:04;100543.84;;;2.92;50.47
20394;BME280;10356;50.544;9.642;2023-02-07T11:38:36;100538.69;;;2.95;50.27
20394;BME280;10356;50.544;9.642;2023-02-07T11:41:04;100536.84;;;3.06;49.51
20394;BME280;10356;50.544;9.642;2023-02-07T11:43:32;100533.22;;;3.22;48.86
20394;BME280;10356;50.544;9.642;2023-02-07T11:46:02;100542.75;;;3.17;49.28
20394;BME280;10356;50.544;9.642;2023-02-07T11:48:35;100528.56;;;3.53;48.95
20394;BME280;10356;50.544;9.642;2023-02-07T11:51:07;100531.69;;;3.76;49.41
20394;BME280;10356;50.544;9.642;2023-02-07T11:53:37;100524.69;;;3.84;48.70
20394;BME280;10356;50.544;9.642;2023-02-07T11:56:20;100520.22;;;3.96;48.10
20394;BME280;10356;50.544;9.642;2023-02-07T11:58:48;100515.31;;;3.78;47.83
20394;BME280;10356;50.544;9.642;2023-02-07T12:01:17;100512.22;;;4.16;48.12
20394;BME280;10356;50.544;9.642;2023-02-07T12:03:47;100505.19;;;4.22;47.24
20394;BME280;10356;50.544;9.642;2023-02-07T12:06:18;100504.19;;;4.33;47.59
20394;BME280;10356;50.544;9.642;2023-02-07T12:08:48;100495.50;;;4.37;46.90
20394;BME280;10356;50.544;9.642;2023-02-07T12:11:20;100500.72;;;4.34;46.71
20394;BME280;10356;50.544;9.642;2023-02-07T12:13:52;100491.25;;;4.36;46.50
20394;BME280;10356;50.544;9.642;2023-02-07T12:16:23;100489.41;;;3.87;47.42
20394;BME280;10356;50.544;9.642;2023-02-07T12:18:54;100488.88;;;4.20;47.25
20394;BME280;10356;50.544;9.642;2023-02-07T12:21:26;100497.56;;;4.16;48.02
20394;BME280;10356;50.544;9.642;2023-02-07T12:23:56;100478.84;;;4.56;46.52
20394;BME280;10356;50.544;9.642;2023-02-07T12:26:28;100489.31;;;4.48;45.22
20394;BME280;10356;50.544;9.642;2023-02-07T12:29:09;100488.75;;;4.30;45.62
20394;BME280;10356;50.544;9.642;2023-02-07T12:31:55;100482.13;;;4.64;45.65
20394;BME280;10356;50.544;9.642;2023-02-07T12:34:31;100489.78;;;4.70;46.64
20394;BME280;10356;50.544;9.642;2023-02-07T12:37:04;100482.63;;;4.84;46.04
20394;BME280;10356;50.544;9.642;2023-02-07T12:39:39;100483.41;;;4.87;46.63
20394;BME280;10356;50.544;9.642;2023-02-07T12:42:22;100481.53;;;4.95;45.08
20394;BME280;10356;50.544;9.642;2023-02-07T12:44:53;100478.22;;;4.90;44.10
20394;BME280;10356;50.544;9.642;2023-02-07T12:47:24;100473.59;;;5.06;44.00
20394;BME280;10356;50.544;9.642;2023-02-07T12:50:07;100471.66;;;5.17;44.03
20394;BME280;10356;50.544;9.642;2023-02-07T12:52:47;100473.16;;;4.83;42.48
20394;BME280;10356;50.544;9.642;2023-02-07T12:55:30;100467.84;;;4.92;43.17
20394;BME280;10356;50.544;9.642;2023-02-07T12:58:12;100465.75;;;5.10;42.57
20394;BME280;10356;50.544;9.642;2023-02-07T13:00:51;100463.69;;;4.83;42.41
20394;BME280;10356;50.544;9.642;2023-02-07T13:03:34;100460.38;;;5.20;43.54
20394;BME280;10356;50.544;9.642;2023-02-07T13:06:10;100461.88;;;5.31;42.55
20394;BME280;10356;50.544;9.642;2023-02-07T13:08:43;100462.09;;;5.21;43.21
20394;BME280;10356;50.544;9.642;2023-02-07T13:11:23;100455.91;;;5.29;42.93
20394;BME280;10356;50.544;9.642;2023-02-07T13:14:04;100459.97;;;5.41;44.43
20394;BME280;10356;50.544;9.642;2023-02-07T13:16:41;100459.69;;;5.53;42.99
20394;BME280;10356;50.544;9.642;2023-02-07T13:19:17;100456.06;;;5.61;42.37